nws-alerts: Checking more than four warning/county codes can delay the loading of your pages. You should use a cron job to get the data.

Nearby METAR Weather Reports

 

KETB - West Bend, WI
Distance from station: E 4mi, 6km
Updated: 08/17/2022 8:15am
Clear
Clear
 Wind from NE
Wind: NE 3 mph , 6 km/h
Temperature: 64°F , 18°C
Dew Point: 63°F , 17°C
Humidity: 94%
Barometer: 30.18 inHg , 1022 hPa
Clouds: Clear
Visibility: 10 miles , 16 km
2022/08/17 13:15 KETB 171315Z AUTO 04003KT 10SM CLR 18/17 A3018 RMK AO2
KFLD - Fond Du Lac, WI
Distance from station: W 34mi, 54km
Updated: 08/17/2022 7:53am
Clear
Clear
 Wind from calm
Wind: Calm
Temperature: 64°F , 18°C
Dew Point: 57°F , 14°C
Humidity: 78%
Barometer: 30.19 inHg , 1022.4 hPa
Clouds: Clear
Visibility: 10 miles , 16 km
2022/08/17 12:53 KFLD 171253Z AUTO 00000KT 10SM CLR 18/14 A3019 RMK AO2 SLP221 T01830144
 
KSBM - Sheboygan, WI
Distance from station: NE 36mi, 57km
Updated: 08/17/2022 7:53am
Clear
Clear
 Wind from N
Wind: N 5 mph , 7 km/h
Temperature: 66°F , 19°C
Dew Point: 63°F , 17°C
Humidity: 88%
Barometer: 30.18 inHg , 1022 hPa
Clouds: Clear
Visibility: 10 miles , 16 km
2022/08/17 12:53 KSBM 171253Z AUTO 35004KT 10SM CLR 19/17 A3018 RMK AO2 SLP217 T01940167
KMKE - Milwaukee, WI
Distance from station: S 44mi, 70km
Updated: 08/17/2022 7:52am
Mostly cloudy
Mostly cloudy
 Wind from N
Wind: N 6 mph , 9 km/h
Temperature: 70°F , 21°C
Dew Point: 64°F , 18°C
Humidity: 83%
Barometer: 30.16 inHg , 1021.3 hPa
Clouds: Mostly cloudy
Visibility: 10 miles , 16 km
Cloud details: Mostly cloudy 25000 ft
2022/08/17 12:52 KMKE 171252Z 01005KT 10SM BKN250 21/18 A3016 RMK AO2 SLP211 T02110178
 
KOSH - Oshkosh, WI
Distance from station: WNW 52mi, 83km
Updated: 08/17/2022 7:53am
Clear
Clear
 Wind from N
Wind: N 6 mph , 9 km/h
Temperature: 66°F , 19°C
Dew Point: 61°F , 16°C
Humidity: 83%
Barometer: 30.19 inHg , 1022.4 hPa
Clouds: Clear
Visibility: 10 miles , 16 km
2022/08/17 12:53 KOSH 171253Z 35005KT 10SM CLR 19/16 A3019 RMK AO2 SLP211 T01940156
KENW - Kenosha, WI
Distance from station: SSE 69mi, 111km
Updated: 08/17/2022 7:53am
Clear
Clear
 Wind from NE
Wind: NE 7 mph , 11 km/h
Temperature: 68°F , 20°C
Dew Point: 64°F , 18°C
Humidity: 88%
Barometer: 30.16 inHg , 1021.3 hPa
Clouds: Clear
Visibility: 10 miles , 16 km
2022/08/17 12:53 KENW 171253Z 04006KT 10SM CLR 20/18 A3016 RMK AO2 SLP210 T02000178
 
KMSN - Madison, WI
Distance from station: SW 69mi, 111km
Updated: 08/17/2022 7:53am
Partly cloudy
Partly cloudy
 Wind from NNW
Wind: NNW 5 mph , 7 km/h
Temperature: 63°F , 17°C
Dew Point: 55°F , 13°C
Humidity: 77%
Barometer: 30.18 inHg , 1022 hPa
Clouds: Partly cloudy
Visibility: 10 miles , 16 km
Cloud details: Partly cloudy 25000 ft
2022/08/17 12:53 KMSN 171253Z 33004KT 10SM SCT250 17/13 A3018 RMK AO2 SLP219 T01670133
KSAW - Marquette, MI
Distance from station: N 262mi, 421km
Updated: 08/17/2022 7:47am
Clear
Clear
 Wind from calm
Wind: Calm
Temperature: 59°F , 15°C
Dew Point: 55°F , 13°C
Humidity: 88%
Barometer: 30.20 inHg , 1022.7 hPa
Clouds: Clear
Visibility: 10 miles , 16 km
2022/08/17 12:47 KSAW 171247Z 00000KT 10SM CLR 15/13 A3020
 
KIMT - Iron Mountain, MI
Distance from station: NNW 201mi, 323km
Updated: 08/17/2022 7:54am
Clear
Clear
 Wind from calm
Wind: Calm
Temperature: 63°F , 17°C
Dew Point: 57°F , 14°C
Humidity: 83%
Barometer: 30.19 inHg , 1022.4 hPa
Clouds: Clear
Visibility: 10 miles , 16 km
2022/08/17 12:54 KIMT 171254Z AUTO 00000KT 10SM CLR 17/14 A3019 RMK AO2 SLP223 T01720139
KGRB - Green Bay, WI
Distance from station: NNW 87mi, 140km
Updated: 08/17/2022 7:53am
Clear
Clear
 Wind from N
Wind: N 5 mph , 7 km/h
Temperature: 66°F , 19°C
Dew Point: 61°F , 16°C
Humidity: 83%
Barometer: 30.19 inHg , 1022.4 hPa
Clouds: Clear
Visibility: 10 miles , 16 km
2022/08/17 12:53 KGRB 171253Z 36004KT 10SM CLR 19/16 A3019 RMK AO2 SLP221 T01940161
 
KAUW - Wausau, WI
Distance from station: NW 155mi, 249km
Updated: 08/17/2022 7:54am
Clear
Clear
 Wind from calm
Wind: Calm
Temperature: 63°F , 17°C
Dew Point: 55°F , 13°C
Humidity: 77%
Barometer: 30.20 inHg , 1022.7 hPa
Clouds: Clear
Visibility: 10 miles , 16 km
2022/08/17 12:54 KAUW 171254Z AUTO 00000KT 10SM CLR 17/13 A3020 RMK AO2 SLP226 T01720133
KORD - Chicago O'Hare, IL
Distance from station: S 113mi, 181km
Updated: 08/17/2022 7:51am
Few Clouds
Few Clouds
 Wind from NNE
Wind: NNE 8 mph , 13 km/h
Temperature: 68°F , 20°C
Dew Point: 63°F , 17°C
Humidity: 83%
Barometer: 30.13 inHg , 1020.3 hPa
Clouds: Few Clouds
Visibility: 10 miles , 16 km
Cloud details: Few Clouds 25000 ft
2022/08/17 12:51 KORD 171251Z 02007KT 10SM FEW250 20/17 A3013 RMK AO2 SLP201 T02000172
 
KVOK - WIANG Volk Field, Camp Douglas, WI
Distance from station: WNW 120mi, 193km
Updated: 08/17/2022 7:56am
Mostly cloudy
Mostly cloudy
 Wind from calm
Wind: Calm
Temperature: 55°F , 13°C
Dew Point: 55°F , 13°C
Humidity: 100%
Barometer: 30.18 inHg , 1022 hPa
Clouds: Mostly cloudy
Visibility: 10 miles , 16 km
Cloud details: Mostly cloudy 21000 ft
2022/08/17 12:56 KVOK 171256Z 00000KT 10SM BKN210 13/13 A3018 RMK AO2A SLP223
KLNR - Lone Rock, WI
Distance from station: W 114mi, 183km
Updated: 08/17/2022 7:56am
Few Clouds
Few Clouds
 Wind from calm
Wind: Calm
Temperature: 59°F , 15°C
Dew Point: 55°F , 13°C
Humidity: 88%
Barometer: 30.19 inHg , 1022.4 hPa
Clouds: Few Clouds
Visibility: 10 miles , 16 km
Cloud details: Few Clouds 300 ft
2022/08/17 12:56 KLNR 171256Z AUTO 00000KT 10SM FEW003 15/13 A3019 RMK AO2 SLP217 T01500133